sensor_id;sensor_type;location;lat;lon;timestamp;P1;durP1;ratioP1;P2;durP2;ratioP2
52554;SDS011;38455;52.710;6.502;2022-08-01T00:00:21;6.03;;;4.30;;
52554;SDS011;38455;52.710;6.502;2022-08-01T00:02:47;6.18;;;4.32;;
52554;SDS011;38455;52.710;6.502;2022-08-01T00:05:12;8.45;;;4.90;;
52554;SDS011;38455;52.710;6.502;2022-08-01T00:07:39;10.40;;;5.55;;
52554;SDS011;38455;52.710;6.502;2022-08-01T00:10:10;9.90;;;5.70;;
52554;SDS011;38455;52.710;6.502;2022-08-01T00:12:37;10.00;;;5.35;;
52554;SDS011;38455;52.710;6.502;2022-08-01T00:15:07;7.80;;;4.65;;
52554;SDS011;38455;52.710;6.502;2022-08-01T00:17:33;7.90;;;4.90;;
52554;SDS011;38455;52.710;6.502;2022-08-01T00:19:59;8.27;;;5.03;;
52554;SDS011;38455;52.710;6.502;2022-08-01T00:22:25;10.07;;;5.25;;
52554;SDS011;38455;52.710;6.502;2022-08-01T00:24:51;10.70;;;5.47;;
52554;SDS011;38455;52.710;6.502;2022-08-01T00:27:17;8.50;;;5.07;;
52554;SDS011;38455;52.710;6.502;2022-08-01T00:29:42;9.07;;;5.15;;
52554;SDS011;38455;52.710;6.502;2022-08-01T00:32:08;8.32;;;5.40;;
52554;SDS011;38455;52.710;6.502;2022-08-01T00:34:34;7.78;;;5.18;;
52554;SDS011;38455;52.710;6.502;2022-08-01T00:37:00;8.98;;;5.25;;
52554;SDS011;38455;52.710;6.502;2022-08-01T00:39:25;10.75;;;5.93;;
52554;SDS011;38455;52.710;6.502;2022-08-01T00:41:51;8.60;;;5.22;;
52554;SDS011;38455;52.710;6.502;2022-08-01T00:44:17;7.65;;;4.93;;
52554;SDS011;38455;52.710;6.502;2022-08-01T00:46:42;10.80;;;5.45;;
52554;SDS011;38455;52.710;6.502;2022-08-01T00:49:08;11.48;;;6.03;;
52554;SDS011;38455;52.710;6.502;2022-08-01T00:51:34;11.35;;;5.90;;
52554;SDS011;38455;52.710;6.502;2022-08-01T00:53:59;7.47;;;4.75;;
52554;SDS011;38455;52.710;6.502;2022-08-01T00:56:25;7.65;;;5.15;;
52554;SDS011;38455;52.710;6.502;2022-08-01T00:58:52;9.43;;;5.90;;
52554;SDS011;38455;52.710;6.502;2022-08-01T01:01:19;9.80;;;5.57;;
52554;SDS011;38455;52.710;6.502;2022-08-01T01:03:46;9.50;;;5.35;;
52554;SDS011;38455;52.710;6.502;2022-08-01T01:06:15;8.13;;;4.90;;
52554;SDS011;38455;52.710;6.502;2022-08-01T01:15:02;10.27;;;5.32;;
52554;SDS011;38455;52.710;6.502;2022-08-01T01:17:44;8.45;;;5.00;;
52554;SDS011;38455;52.710;6.502;2022-08-01T01:20:12;10.43;;;5.03;;
52554;SDS011;38455;52.710;6.502;2022-08-01T01:22:46;10.20;;;5.70;;
52554;SDS011;38455;52.710;6.502;2022-08-01T01:25:32;8.20;;;5.45;;
52554;SDS011;38455;52.710;6.502;2022-08-01T01:30:41;7.75;;;5.32;;
52554;SDS011;38455;52.710;6.502;2022-08-01T01:33:10;6.78;;;4.70;;
52554;SDS011;38455;52.710;6.502;2022-08-01T01:35:38;9.00;;;5.20;;
52554;SDS011;38455;52.710;6.502;2022-08-01T01:38:17;7.55;;;5.22;;
52554;SDS011;38455;52.710;6.502;2022-08-01T01:40:46;8.40;;;5.43;;
52554;SDS011;38455;52.710;6.502;2022-08-01T01:43:14;11.15;;;5.28;;
52554;SDS011;38455;52.710;6.502;2022-08-01T01:45:41;8.95;;;5.65;;
52554;SDS011;38455;52.710;6.502;2022-08-01T01:48:09;9.93;;;5.72;;
52554;SDS011;38455;52.710;6.502;2022-08-01T01:50:37;15.27;;;5.68;;
52554;SDS011;38455;52.710;6.502;2022-08-01T01:53:04;7.85;;;5.03;;
52554;SDS011;38455;52.710;6.502;2022-08-01T01:55:32;10.82;;;5.32;;
52554;SDS011;38455;52.710;6.502;2022-08-01T01:57:59;8.63;;;5.50;;
52554;SDS011;38455;52.710;6.502;2022-08-01T02:00:26;8.13;;;5.40;;
52554;SDS011;38455;52.710;6.502;2022-08-01T02:02:54;9.07;;;5.63;;
52554;SDS011;38455;52.710;6.502;2022-08-01T02:05:21;11.25;;;5.72;;
52554;SDS011;38455;52.710;6.502;2022-08-01T02:07:48;10.48;;;4.75;;
52554;SDS011;38455;52.710;6.502;2022-08-01T02:10:16;7.63;;;5.25;;
52554;SDS011;38455;52.710;6.502;2022-08-01T02:12:43;6.75;;;4.88;;
52554;SDS011;38455;52.710;6.502;2022-08-01T02:15:11;11.73;;;5.40;;
52554;SDS011;38455;52.710;6.502;2022-08-01T02:17:40;8.68;;;5.18;;
52554;SDS011;38455;52.710;6.502;2022-08-01T02:20:08;11.50;;;5.43;;
52554;SDS011;38455;52.710;6.502;2022-08-01T02:22:37;8.45;;;5.15;;
52554;SDS011;38455;52.710;6.502;2022-08-01T02:27:54;15.18;;;5.50;;
52554;SDS011;38455;52.710;6.502;2022-08-01T02:30:26;8.55;;;4.38;;
52554;SDS011;38455;52.710;6.502;2022-08-01T02:33:04;7.60;;;3.88;;
52554;SDS011;38455;52.710;6.502;2022-08-01T02:35:35;5.28;;;3.45;;
52554;SDS011;38455;52.710;6.502;2022-08-01T02:38:05;6.85;;;4.15;;
52554;SDS011;38455;52.710;6.502;2022-08-01T02:40:34;6.85;;;4.20;;
52554;SDS011;38455;52.710;6.502;2022-08-01T02:43:04;5.28;;;3.95;;
52554;SDS011;38455;52.710;6.502;2022-08-01T02:45:31;5.45;;;3.53;;
52554;SDS011;38455;52.710;6.502;2022-08-01T02:48:10;6.05;;;3.40;;
52554;SDS011;38455;52.710;6.502;2022-08-01T02:50:38;5.82;;;4.03;;
52554;SDS011;38455;52.710;6.502;2022-08-01T02:53:07;5.07;;;3.78;;
52554;SDS011;38455;52.710;6.502;2022-08-01T02:55:35;5.45;;;3.95;;
52554;SDS011;38455;52.710;6.502;2022-08-01T02:58:03;5.35;;;3.35;;
52554;SDS011;38455;52.710;6.502;2022-08-01T03:00:31;5.20;;;3.30;;
52554;SDS011;38455;52.710;6.502;2022-08-01T03:02:58;4.65;;;3.53;;
52554;SDS011;38455;52.710;6.502;2022-08-01T03:05:25;6.28;;;3.60;;
52554;SDS011;38455;52.710;6.502;2022-08-01T03:07:52;5.68;;;3.55;;
52554;SDS011;38455;52.710;6.502;2022-08-01T03:10:20;5.35;;;3.75;;
52554;SDS011;38455;52.710;6.502;2022-08-01T03:12:47;5.93;;;4.25;;
52554;SDS011;38455;52.710;6.502;2022-08-01T03:15:15;7.38;;;4.20;;
52554;SDS011;38455;52.710;6.502;2022-08-01T03:17:44;6.55;;;3.83;;
52554;SDS011;38455;52.710;6.502;2022-08-01T03:20:13;7.47;;;4.18;;
52554;SDS011;38455;52.710;6.502;2022-08-01T03:22:40;6.40;;;4.15;;
52554;SDS011;38455;52.710;6.502;2022-08-01T03:25:08;5.45;;;4.00;;
52554;SDS011;38455;52.710;6.502;2022-08-01T03:27:37;5.30;;;3.92;;
52554;SDS011;38455;52.710;6.502;2022-08-01T03:30:05;5.97;;;4.00;;
52554;SDS011;38455;52.710;6.502;2022-08-01T03:32:31;5.88;;;3.78;;
52554;SDS011;38455;52.710;6.502;2022-08-01T03:34:57;7.78;;;3.45;;
52554;SDS011;38455;52.710;6.502;2022-08-01T03:37:29;6.82;;;3.10;;
52554;SDS011;38455;52.710;6.502;2022-08-01T03:40:23;8.50;;;2.45;;
52554;SDS011;38455;52.710;6.502;2022-08-01T03:42:58;7.70;;;1.90;;
52554;SDS011;38455;52.710;6.502;2022-08-01T03:45:35;6.88;;;2.10;;
52554;SDS011;38455;52.710;6.502;2022-08-01T03:48:06;5.07;;;2.63;;
52554;SDS011;38455;52.710;6.502;2022-08-01T03:50:37;5.50;;;1.80;;
52554;SDS011;38455;52.710;6.502;2022-08-01T03:53:07;4.95;;;2.20;;
52554;SDS011;38455;52.710;6.502;2022-08-01T03:55:35;7.85;;;2.40;;
52554;SDS011;38455;52.710;6.502;2022-08-01T03:58:03;4.43;;;1.95;;
52554;SDS011;38455;52.710;6.502;2022-08-01T04:00:30;3.28;;;1.88;;
52554;SDS011;38455;52.710;6.502;2022-08-01T04:02:55;2.42;;;1.65;;
52554;SDS011;38455;52.710;6.502;2022-08-01T04:05:22;4.38;;;1.77;;
52554;SDS011;38455;52.710;6.502;2022-08-01T04:07:49;4.15;;;1.50;;
52554;SDS011;38455;52.710;6.502;2022-08-01T04:10:20;6.60;;;1.88;;
52554;SDS011;38455;52.710;6.502;2022-08-01T04:12:50;6.85;;;1.83;;
52554;SDS011;38455;52.710;6.502;2022-08-01T04:15:15;1.95;;;1.42;;
52554;SDS011;38455;52.710;6.502;2022-08-01T04:17:41;3.38;;;1.92;;
52554;SDS011;38455;52.710;6.502;2022-08-01T04:20:07;6.80;;;1.95;;
52554;SDS011;38455;52.710;6.502;2022-08-01T04:22:33;6.10;;;1.83;;
52554;SDS011;38455;52.710;6.502;2022-08-01T04:25:01;3.10;;;1.60;;
52554;SDS011;38455;52.710;6.502;2022-08-01T04:27:40;5.85;;;1.80;;
52554;SDS011;38455;52.710;6.502;2022-08-01T04:32:35;2.88;;;1.70;;
52554;SDS011;38455;52.710;6.502;2022-08-01T04:35:04;4.57;;;2.00;;
52554;SDS011;38455;52.710;6.502;2022-08-01T04:37:33;7.80;;;2.20;;
52554;SDS011;38455;52.710;6.502;2022-08-01T04:40:02;2.85;;;1.80;;
52554;SDS011;38455;52.710;6.502;2022-08-01T04:42:31;6.38;;;2.35;;
52554;SDS011;38455;52.710;6.502;2022-08-01T04:44:59;6.53;;;1.88;;
52554;SDS011;38455;52.710;6.502;2022-08-01T04:47:25;6.07;;;2.25;;
52554;SDS011;38455;52.710;6.502;2022-08-01T04:49:52;7.35;;;2.17;;
52554;SDS011;38455;52.710;6.502;2022-08-01T04:52:18;5.68;;;2.40;;
52554;SDS011;38455;52.710;6.502;2022-08-01T04:54:45;7.30;;;2.50;;
52554;SDS011;38455;52.710;6.502;2022-08-01T04:57:11;8.10;;;2.00;;
52554;SDS011;38455;52.710;6.502;2022-08-01T04:59:38;6.30;;;2.00;;
52554;SDS011;38455;52.710;6.502;2022-08-01T05:02:08;7.57;;;2.35;;
52554;SDS011;38455;52.710;6.502;2022-08-01T05:04:39;11.32;;;2.33;;
52554;SDS011;38455;52.710;6.502;2022-08-01T05:07:06;8.45;;;2.55;;
52554;SDS011;38455;52.710;6.502;2022-08-01T05:09:32;5.43;;;1.98;;
52554;SDS011;38455;52.710;6.502;2022-08-01T05:11:58;7.90;;;2.40;;
52554;SDS011;38455;52.710;6.502;2022-08-01T05:14:25;5.68;;;2.40;;
52554;SDS011;38455;52.710;6.502;2022-08-01T05:16:52;5.75;;;2.10;;
52554;SDS011;38455;52.710;6.502;2022-08-01T05:19:17;5.85;;;2.50;;
52554;SDS011;38455;52.710;6.502;2022-08-01T05:21:43;6.13;;;2.25;;
52554;SDS011;38455;52.710;6.502;2022-08-01T05:24:09;5.57;;;2.15;;
52554;SDS011;38455;52.710;6.502;2022-08-01T05:26:35;7.53;;;3.03;;
52554;SDS011;38455;52.710;6.502;2022-08-01T05:29:01;10.05;;;2.65;;
52554;SDS011;38455;52.710;6.502;2022-08-01T05:31:27;6.65;;;2.70;;
52554;SDS011;38455;52.710;6.502;2022-08-01T05:33:53;8.40;;;2.65;;
52554;SDS011;38455;52.710;6.502;2022-08-01T05:36:19;6.35;;;2.53;;
52554;SDS011;38455;52.710;6.502;2022-08-01T05:38:44;9.15;;;2.72;;
52554;SDS011;38455;52.710;6.502;2022-08-01T05:41:10;12.02;;;3.72;;
52554;SDS011;38455;52.710;6.502;2022-08-01T05:43:36;11.85;;;3.65;;
52554;SDS011;38455;52.710;6.502;2022-08-01T05:46:02;13.30;;;3.00;;
52554;SDS011;38455;52.710;6.502;2022-08-01T05:48:27;11.98;;;2.80;;
52554;SDS011;38455;52.710;6.502;2022-08-01T05:50:53;5.30;;;2.50;;
52554;SDS011;38455;52.710;6.502;2022-08-01T05:53:19;7.35;;;2.90;;
52554;SDS011;38455;52.710;6.502;2022-08-01T05:55:45;8.65;;;2.65;;
52554;SDS011;38455;52.710;6.502;2022-08-01T05:58:10;16.13;;;3.15;;
52554;SDS011;38455;52.710;6.502;2022-08-01T06:00:36;16.92;;;3.60;;
52554;SDS011;38455;52.710;6.502;2022-08-01T06:03:02;11.45;;;3.55;;
52554;SDS011;38455;52.710;6.502;2022-08-01T06:05:27;10.68;;;2.92;;
52554;SDS011;38455;52.710;6.502;2022-08-01T06:07:53;6.22;;;2.47;;
52554;SDS011;38455;52.710;6.502;2022-08-01T06:10:19;7.22;;;2.63;;
52554;SDS011;38455;52.710;6.502;2022-08-01T06:12:44;11.32;;;2.95;;
52554;SDS011;38455;52.710;6.502;2022-08-01T06:15:10;7.45;;;2.83;;
52554;SDS011;38455;52.710;6.502;2022-08-01T06:17:36;16.17;;;3.33;;
52554;SDS011;38455;52.710;6.502;2022-08-01T06:20:02;7.70;;;2.95;;
52554;SDS011;38455;52.710;6.502;2022-08-01T06:22:28;10.82;;;3.47;;
52554;SDS011;38455;52.710;6.502;2022-08-01T06:24:54;11.10;;;3.45;;
52554;SDS011;38455;52.710;6.502;2022-08-01T06:27:20;7.43;;;2.53;;
52554;SDS011;38455;52.710;6.502;2022-08-01T06:29:46;9.15;;;2.67;;
52554;SDS011;38455;52.710;6.502;2022-08-01T06:32:12;7.85;;;2.88;;
52554;SDS011;38455;52.710;6.502;2022-08-01T06:34:37;8.10;;;2.55;;
52554;SDS011;38455;52.710;6.502;2022-08-01T06:37:03;6.93;;;2.42;;
52554;SDS011;38455;52.710;6.502;2022-08-01T06:39:28;5.57;;;2.58;;
52554;SDS011;38455;52.710;6.502;2022-08-01T06:41:54;13.35;;;2.78;;
52554;SDS011;38455;52.710;6.502;2022-08-01T06:44:20;9.13;;;2.90;;
52554;SDS011;38455;52.710;6.502;2022-08-01T06:46:45;8.80;;;2.42;;
52554;SDS011;38455;52.710;6.502;2022-08-01T06:49:11;6.65;;;2.55;;
52554;SDS011;38455;52.710;6.502;2022-08-01T06:51:36;8.02;;;2.17;;
52554;SDS011;38455;52.710;6.502;2022-08-01T06:54:02;7.07;;;2.60;;
52554;SDS011;38455;52.710;6.502;2022-08-01T06:56:28;9.65;;;2.80;;
52554;SDS011;38455;52.710;6.502;2022-08-01T06:58:54;8.57;;;2.60;;
52554;SDS011;38455;52.710;6.502;2022-08-01T07:01:25;9.30;;;2.80;;
52554;SDS011;38455;52.710;6.502;2022-08-01T07:03:54;14.10;;;4.68;;
52554;SDS011;38455;52.710;6.502;2022-08-01T07:06:20;11.60;;;2.50;;
52554;SDS011;38455;52.710;6.502;2022-08-01T07:08:49;13.35;;;3.30;;
52554;SDS011;38455;52.710;6.502;2022-08-01T07:11:15;12.45;;;3.20;;
52554;SDS011;38455;52.710;6.502;2022-08-01T07:13:40;13.98;;;3.20;;
52554;SDS011;38455;52.710;6.502;2022-08-01T07:16:06;9.10;;;2.80;;
52554;SDS011;38455;52.710;6.502;2022-08-01T07:18:31;10.85;;;3.42;;
52554;SDS011;38455;52.710;6.502;2022-08-01T07:20:57;9.43;;;2.47;;
52554;SDS011;38455;52.710;6.502;2022-08-01T07:23:23;13.48;;;3.00;;
52554;SDS011;38455;52.710;6.502;2022-08-01T07:25:48;15.27;;;3.05;;
52554;SDS011;38455;52.710;6.502;2022-08-01T07:28:15;12.43;;;2.75;;
52554;SDS011;38455;52.710;6.502;2022-08-01T07:30:41;9.48;;;3.08;;
52554;SDS011;38455;52.710;6.502;2022-08-01T07:33:09;10.98;;;2.60;;
52554;SDS011;38455;52.710;6.502;2022-08-01T07:35:35;7.45;;;2.30;;
52554;SDS011;38455;52.710;6.502;2022-08-01T07:38:03;18.02;;;3.50;;
52554;SDS011;38455;52.710;6.502;2022-08-01T07:40:29;11.90;;;2.63;;
52554;SDS011;38455;52.710;6.502;2022-08-01T07:42:55;13.68;;;2.42;;
52554;SDS011;38455;52.710;6.502;2022-08-01T07:45:21;16.60;;;3.85;;
52554;SDS011;38455;52.710;6.502;2022-08-01T07:47:46;11.15;;;2.55;;
52554;SDS011;38455;52.710;6.502;2022-08-01T07:50:14;8.60;;;3.40;;
52554;SDS011;38455;52.710;6.502;2022-08-01T07:52:41;14.77;;;3.17;;
52554;SDS011;38455;52.710;6.502;2022-08-01T07:55:07;15.57;;;3.42;;
52554;SDS011;38455;52.710;6.502;2022-08-01T07:57:34;12.70;;;2.53;;
52554;SDS011;38455;52.710;6.502;2022-08-01T08:00:00;11.23;;;3.22;;
52554;SDS011;38455;52.710;6.502;2022-08-01T08:02:25;9.88;;;2.33;;
52554;SDS011;38455;52.710;6.502;2022-08-01T08:04:51;10.25;;;2.30;;
52554;SDS011;38455;52.710;6.502;2022-08-01T08:07:17;12.80;;;2.60;;
52554;SDS011;38455;52.710;6.502;2022-08-01T08:09:42;13.85;;;2.75;;
52554;SDS011;38455;52.710;6.502;2022-08-01T08:12:08;10.13;;;2.58;;
52554;SDS011;38455;52.710;6.502;2022-08-01T08:14:34;10.50;;;2.72;;
52554;SDS011;38455;52.710;6.502;2022-08-01T08:17:00;9.50;;;2.72;;
52554;SDS011;38455;52.710;6.502;2022-08-01T08:19:25;15.02;;;2.67;;
52554;SDS011;38455;52.710;6.502;2022-08-01T08:21:51;6.93;;;2.00;;
52554;SDS011;38455;52.710;6.502;2022-08-01T08:24:17;14.68;;;2.72;;
52554;SDS011;38455;52.710;6.502;2022-08-01T08:26:49;8.88;;;1.75;;
52554;SDS011;38455;52.710;6.502;2022-08-01T08:29:18;14.98;;;2.75;;
52554;SDS011;38455;52.710;6.502;2022-08-01T08:31:44;14.73;;;2.80;;
52554;SDS011;38455;52.710;6.502;2022-08-01T08:34:10;7.32;;;1.83;;
52554;SDS011;38455;52.710;6.502;2022-08-01T08:36:36;13.52;;;3.08;;
52554;SDS011;38455;52.710;6.502;2022-08-01T08:39:02;15.43;;;2.13;;
52554;SDS011;38455;52.710;6.502;2022-08-01T08:41:29;13.07;;;2.30;;
52554;SDS011;38455;52.710;6.502;2022-08-01T08:43:56;11.52;;;2.65;;
52554;SDS011;38455;52.710;6.502;2022-08-01T08:46:24;9.25;;;2.10;;
52554;SDS011;38455;52.710;6.502;2022-08-01T08:48:52;10.95;;;2.58;;
52554;SDS011;38455;52.710;6.502;2022-08-01T08:51:18;9.07;;;2.22;;
52554;SDS011;38455;52.710;6.502;2022-08-01T08:53:45;7.28;;;1.80;;
52554;SDS011;38455;52.710;6.502;2022-08-01T08:56:12;6.38;;;1.88;;
52554;SDS011;38455;52.710;6.502;2022-08-01T08:58:40;10.38;;;3.22;;
52554;SDS011;38455;52.710;6.502;2022-08-01T09:01:08;11.80;;;3.15;;
52554;SDS011;38455;52.710;6.502;2022-08-01T09:03:35;11.93;;;2.50;;
52554;SDS011;38455;52.710;6.502;2022-08-01T09:06:01;11.30;;;2.10;;
52554;SDS011;38455;52.710;6.502;2022-08-01T09:08:27;8.05;;;1.70;;
52554;SDS011;38455;52.710;6.502;2022-08-01T09:10:53;11.05;;;1.98;;
52554;SDS011;38455;52.710;6.502;2022-08-01T09:13:19;5.97;;;1.92;;
52554;SDS011;38455;52.710;6.502;2022-08-01T09:15:46;6.50;;;1.60;;
52554;SDS011;38455;52.710;6.502;2022-08-01T09:21:19;8.52;;;2.25;;
52554;SDS011;38455;52.710;6.502;2022-08-01T09:23:49;7.35;;;1.25;;
52554;SDS011;38455;52.710;6.502;2022-08-01T09:26:17;10.88;;;1.67;;
52554;SDS011;38455;52.710;6.502;2022-08-01T09:28:45;8.05;;;2.15;;
52554;SDS011;38455;52.710;6.502;2022-08-01T09:31:12;8.65;;;1.92;;
52554;SDS011;38455;52.710;6.502;2022-08-01T09:33:58;7.80;;;1.70;;
52554;SDS011;38455;52.710;6.502;2022-08-01T09:39:19;8.07;;;2.15;;
52554;SDS011;38455;52.710;6.502;2022-08-01T09:41:47;8.85;;;2.00;;
52554;SDS011;38455;52.710;6.502;2022-08-01T09:44:13;11.30;;;1.95;;
52554;SDS011;38455;52.710;6.502;2022-08-01T09:46:52;7.13;;;1.83;;
52554;SDS011;38455;52.710;6.502;2022-08-01T09:49:30;9.65;;;2.25;;
52554;SDS011;38455;52.710;6.502;2022-08-01T09:52:13;9.30;;;1.95;;
52554;SDS011;38455;52.710;6.502;2022-08-01T09:54:51;7.63;;;1.70;;
52554;SDS011;38455;52.710;6.502;2022-08-01T09:57:19;7.43;;;1.65;;
52554;SDS011;38455;52.710;6.502;2022-08-01T09:59:46;6.10;;;1.60;;
52554;SDS011;38455;52.710;6.502;2022-08-01T10:02:26;8.90;;;1.27;;
52554;SDS011;38455;52.710;6.502;2022-08-01T10:04:55;12.80;;;1.75;;
52554;SDS011;38455;52.710;6.502;2022-08-01T10:07:21;5.85;;;1.65;;
52554;SDS011;38455;52.710;6.502;2022-08-01T10:09:47;7.38;;;1.63;;
52554;SDS011;38455;52.710;6.502;2022-08-01T10:12:14;7.82;;;1.40;;
52554;SDS011;38455;52.710;6.502;2022-08-01T10:14:43;8.15;;;1.30;;
52554;SDS011;38455;52.710;6.502;2022-08-01T10:17:12;4.40;;;1.20;;
52554;SDS011;38455;52.710;6.502;2022-08-01T10:19:41;3.75;;;1.13;;
52554;SDS011;38455;52.710;6.502;2022-08-01T10:22:08;5.50;;;1.33;;
52554;SDS011;38455;52.710;6.502;2022-08-01T10:24:37;6.22;;;1.40;;
52554;SDS011;38455;52.710;6.502;2022-08-01T10:27:05;3.58;;;1.30;;
52554;SDS011;38455;52.710;6.502;2022-08-01T10:29:37;6.07;;;1.45;;
52554;SDS011;38455;52.710;6.502;2022-08-01T10:32:11;4.65;;;1.35;;
52554;SDS011;38455;52.710;6.502;2022-08-01T10:34:37;5.93;;;1.30;;
52554;SDS011;38455;52.710;6.502;2022-08-01T10:37:04;4.47;;;1.17;;
52554;SDS011;38455;52.710;6.502;2022-08-01T10:39:31;6.38;;;1.13;;
52554;SDS011;38455;52.710;6.502;2022-08-01T10:41:57;2.60;;;1.35;;
52554;SDS011;38455;52.710;6.502;2022-08-01T10:44:24;9.23;;;1.77;;
52554;SDS011;38455;52.710;6.502;2022-08-01T10:46:52;3.45;;;1.20;;
52554;SDS011;38455;52.710;6.502;2022-08-01T10:49:23;4.78;;;1.23;;
52554;SDS011;38455;52.710;6.502;2022-08-01T10:51:53;5.10;;;1.10;;
52554;SDS011;38455;52.710;6.502;2022-08-01T10:54:19;9.75;;;2.03;;
52554;SDS011;38455;52.710;6.502;2022-08-01T10:56:50;4.35;;;0.93;;
52554;SDS011;38455;52.710;6.502;2022-08-01T10:59:21;6.05;;;1.70;;
52554;SDS011;38455;52.710;6.502;2022-08-01T11:02:03;9.07;;;1.25;;
52554;SDS011;38455;52.710;6.502;2022-08-01T11:04:50;6.32;;;1.02;;
52554;SDS011;38455;52.710;6.502;2022-08-01T11:07:35;4.75;;;1.00;;
52554;SDS011;38455;52.710;6.502;2022-08-01T11:10:24;4.93;;;2.03;;
52554;SDS011;38455;52.710;6.502;2022-08-01T11:13:02;8.95;;;1.35;;
52554;SDS011;38455;52.710;6.502;2022-08-01T11:15:32;4.20;;;1.27;;
52554;SDS011;38455;52.710;6.502;2022-08-01T11:17:59;8.15;;;1.00;;
52554;SDS011;38455;52.710;6.502;2022-08-01T11:20:26;3.67;;;0.90;;
52554;SDS011;38455;52.710;6.502;2022-08-01T11:30:46;3.10;;;0.90;;
52554;SDS011;38455;52.710;6.502;2022-08-01T11:33:13;4.35;;;1.00;;
52554;SDS011;38455;52.710;6.502;2022-08-01T11:52:01;2.42;;;0.73;;
52554;SDS011;38455;52.710;6.502;2022-08-01T11:54:28;2.97;;;0.95;;
52554;SDS011;38455;52.710;6.502;2022-08-01T11:56:58;3.90;;;1.02;;
52554;SDS011;38455;52.710;6.502;2022-08-01T11:59:25;4.88;;;1.35;;
52554;SDS011;38455;52.710;6.502;2022-08-01T12:01:51;3.15;;;0.90;;
52554;SDS011;38455;52.710;6.502;2022-08-01T12:04:17;5.50;;;1.13;;
52554;SDS011;38455;52.710;6.502;2022-08-01T12:06:43;6.85;;;0.80;;
52554;SDS011;38455;52.710;6.502;2022-08-01T12:09:21;7.68;;;1.50;;
52554;SDS011;38455;52.710;6.502;2022-08-01T12:11:48;4.82;;;1.02;;
52554;SDS011;38455;52.710;6.502;2022-08-01T12:14:18;2.30;;;0.95;;
52554;SDS011;38455;52.710;6.502;2022-08-01T12:16:49;4.65;;;1.02;;
52554;SDS011;38455;52.710;6.502;2022-08-01T12:19:22;3.70;;;1.17;;
52554;SDS011;38455;52.710;6.502;2022-08-01T12:24:38;4.78;;;1.10;;
52554;SDS011;38455;52.710;6.502;2022-08-01T12:27:06;2.67;;;0.90;;
52554;SDS011;38455;52.710;6.502;2022-08-01T12:29:37;4.85;;;0.95;;
52554;SDS011;38455;52.710;6.502;2022-08-01T12:34:56;2.47;;;1.30;;
52554;SDS011;38455;52.710;6.502;2022-08-01T12:37:28;3.58;;;0.80;;
52554;SDS011;38455;52.710;6.502;2022-08-01T12:39:54;4.68;;;0.95;;
52554;SDS011;38455;52.710;6.502;2022-08-01T12:42:20;6.45;;;1.02;;
52554;SDS011;38455;52.710;6.502;2022-08-01T12:44:48;5.65;;;1.17;;
52554;SDS011;38455;52.710;6.502;2022-08-01T12:47:16;6.05;;;1.42;;
52554;SDS011;38455;52.710;6.502;2022-08-01T12:49:44;3.72;;;0.90;;
52554;SDS011;38455;52.710;6.502;2022-08-01T12:52:10;2.85;;;0.90;;
52554;SDS011;38455;52.710;6.502;2022-08-01T12:57:25;7.88;;;1.15;;
52554;SDS011;38455;52.710;6.502;2022-08-01T13:00:04;4.15;;;0.93;;
52554;SDS011;38455;52.710;6.502;2022-08-01T13:02:35;6.05;;;1.15;;
52554;SDS011;38455;52.710;6.502;2022-08-01T13:05:01;3.67;;;1.02;;
52554;SDS011;38455;52.710;6.502;2022-08-01T13:07:35;10.05;;;2.17;;
52554;SDS011;38455;52.710;6.502;2022-08-01T13:10:03;2.60;;;0.70;;
52554;SDS011;38455;52.710;6.502;2022-08-01T13:12:29;3.92;;;1.05;;
52554;SDS011;38455;52.710;6.502;2022-08-01T13:14:55;5.53;;;1.33;;
52554;SDS011;38455;52.710;6.502;2022-08-01T13:17:30;5.05;;;1.20;;
52554;SDS011;38455;52.710;6.502;2022-08-01T13:20:04;3.83;;;0.82;;
52554;SDS011;38455;52.710;6.502;2022-08-01T13:22:34;3.03;;;0.90;;
52554;SDS011;38455;52.710;6.502;2022-08-01T13:25:10;6.43;;;1.15;;
52554;SDS011;38455;52.710;6.502;2022-08-01T13:27:39;4.47;;;0.98;;
52554;SDS011;38455;52.710;6.502;2022-08-01T13:30:15;5.43;;;1.00;;
52554;SDS011;38455;52.710;6.502;2022-08-01T13:32:43;3.72;;;1.05;;
52554;SDS011;38455;52.710;6.502;2022-08-01T13:35:22;3.88;;;1.83;;
52554;SDS011;38455;52.710;6.502;2022-08-01T13:37:47;4.25;;;1.52;;
52554;SDS011;38455;52.710;6.502;2022-08-01T13:40:22;5.40;;;1.20;;
52554;SDS011;38455;52.710;6.502;2022-08-01T13:42:55;5.18;;;1.00;;
52554;SDS011;38455;52.710;6.502;2022-08-01T13:45:22;5.57;;;1.20;;
52554;SDS011;38455;52.710;6.502;2022-08-01T13:47:48;5.97;;;0.80;;
52554;SDS011;38455;52.710;6.502;2022-08-01T13:50:14;3.50;;;1.10;;
52554;SDS011;38455;52.710;6.502;2022-08-01T13:52:39;4.47;;;0.90;;
52554;SDS011;38455;52.710;6.502;2022-08-01T13:55:05;4.28;;;1.10;;
52554;SDS011;38455;52.710;6.502;2022-08-01T13:57:31;4.32;;;0.93;;
52554;SDS011;38455;52.710;6.502;2022-08-01T13:59:57;4.00;;;1.15;;
52554;SDS011;38455;52.710;6.502;2022-08-01T14:02:25;6.00;;;1.10;;
52554;SDS011;38455;52.710;6.502;2022-08-01T14:04:52;4.22;;;0.90;;
52554;SDS011;38455;52.710;6.502;2022-08-01T14:07:19;3.67;;;0.90;;
52554;SDS011;38455;52.710;6.502;2022-08-01T14:09:45;4.72;;;0.98;;
52554;SDS011;38455;52.710;6.502;2022-08-01T14:12:11;5.05;;;0.82;;
52554;SDS011;38455;52.710;6.502;2022-08-01T14:14:36;4.72;;;1.00;;
52554;SDS011;38455;52.710;6.502;2022-08-01T14:17:03;3.25;;;1.20;;
52554;SDS011;38455;52.710;6.502;2022-08-01T14:19:29;1.52;;;0.68;;
52554;SDS011;38455;52.710;6.502;2022-08-01T14:21:55;2.63;;;0.88;;
52554;SDS011;38455;52.710;6.502;2022-08-01T14:24:22;5.50;;;1.27;;
52554;SDS011;38455;52.710;6.502;2022-08-01T14:26:48;4.97;;;1.40;;
52554;SDS011;38455;52.710;6.502;2022-08-01T14:29:14;4.88;;;0.95;;
52554;SDS011;38455;52.710;6.502;2022-08-01T14:31:40;4.65;;;0.68;;
52554;SDS011;38455;52.710;6.502;2022-08-01T14:34:06;6.55;;;1.00;;
52554;SDS011;38455;52.710;6.502;2022-08-01T14:36:31;7.72;;;1.00;;
52554;SDS011;38455;52.710;6.502;2022-08-01T14:38:57;2.20;;;0.77;;
52554;SDS011;38455;52.710;6.502;2022-08-01T14:41:23;2.25;;;0.82;;
52554;SDS011;38455;52.710;6.502;2022-08-01T14:43:51;4.40;;;0.75;;
52554;SDS011;38455;52.710;6.502;2022-08-01T14:46:17;5.55;;;0.98;;
52554;SDS011;38455;52.710;6.502;2022-08-01T14:48:42;4.72;;;0.90;;
52554;SDS011;38455;52.710;6.502;2022-08-01T14:51:08;1.52;;;0.57;;
52554;SDS011;38455;52.710;6.502;2022-08-01T14:53:34;3.55;;;0.65;;
52554;SDS011;38455;52.710;6.502;2022-08-01T14:56:02;5.60;;;0.60;;
52554;SDS011;38455;52.710;6.502;2022-08-01T14:58:28;6.38;;;0.90;;
52554;SDS011;38455;52.710;6.502;2022-08-01T15:00:54;3.72;;;1.05;;
52554;SDS011;38455;52.710;6.502;2022-08-01T15:03:20;2.10;;;0.88;;
52554;SDS011;38455;52.710;6.502;2022-08-01T15:05:46;4.53;;;1.52;;
52554;SDS011;38455;52.710;6.502;2022-08-01T15:08:11;5.30;;;1.27;;
52554;SDS011;38455;52.710;6.502;2022-08-01T15:10:37;4.60;;;1.10;;
52554;SDS011;38455;52.710;6.502;2022-08-01T15:13:03;5.75;;;1.42;;
52554;SDS011;38455;52.710;6.502;2022-08-01T15:15:29;3.58;;;0.80;;
52554;SDS011;38455;52.710;6.502;2022-08-01T15:17:55;3.42;;;1.00;;
52554;SDS011;38455;52.710;6.502;2022-08-01T15:20:21;3.28;;;0.90;;
52554;SDS011;38455;52.710;6.502;2022-08-01T15:22:51;5.35;;;1.52;;
52554;SDS011;38455;52.710;6.502;2022-08-01T15:25:18;4.07;;;0.80;;
52554;SDS011;38455;52.710;6.502;2022-08-01T15:27:44;1.88;;;0.75;;
52554;SDS011;38455;52.710;6.502;2022-08-01T15:30:10;3.30;;;0.88;;
52554;SDS011;38455;52.710;6.502;2022-08-01T15:32:35;2.55;;;0.65;;
52554;SDS011;38455;52.710;6.502;2022-08-01T15:35:01;4.95;;;0.88;;
52554;SDS011;38455;52.710;6.502;2022-08-01T15:37:27;5.50;;;1.00;;
52554;SDS011;38455;52.710;6.502;2022-08-01T15:39:53;7.32;;;0.75;;
52554;SDS011;38455;52.710;6.502;2022-08-01T15:42:18;5.03;;;0.95;;